createdAt,value
2022-08-11T00:00:27.237Z,0.00
2022-08-11T00:01:27.223Z,0.00
2022-08-11T00:02:27.221Z,0.00
2022-08-11T00:03:43.163Z,0.00
2022-08-11T00:04:28.206Z,0.00
2022-08-11T00:05:27.185Z,0.00
2022-08-11T00:06:27.166Z,0.00
2022-08-11T00:07:27.178Z,0.00
2022-08-11T00:08:27.143Z,0.00
2022-08-11T00:09:27.133Z,0.00
2022-08-11T00:10:27.126Z,0.00
2022-08-11T00:11:27.115Z,0.00
2022-08-11T00:12:27.134Z,0.00
2022-08-11T00:13:27.095Z,0.00
2022-08-11T00:14:36.940Z,0.00
2022-08-11T00:15:28.073Z,0.00
2022-08-11T00:16:27.091Z,0.00
2022-08-11T00:17:27.065Z,0.00
2022-08-11T00:18:27.034Z,0.00
2022-08-11T00:20:13.793Z,0.00
2022-08-11T00:20:28.018Z,0.00
2022-08-11T00:22:03.134Z,0.00
2022-08-11T00:22:28.014Z,0.00
2022-08-11T00:23:26.979Z,0.00
2022-08-11T00:24:26.974Z,0.00
2022-08-11T00:25:27.223Z,0.00
2022-08-11T00:26:26.948Z,0.00
2022-08-11T00:27:26.955Z,0.00
2022-08-11T00:28:27.212Z,0.00
2022-08-11T00:29:27.119Z,0.00
2022-08-11T00:30:26.904Z,0.00
2022-08-11T00:31:26.910Z,0.00
2022-08-11T00:32:26.896Z,0.00
2022-08-11T00:33:41.237Z,0.00
2022-08-11T00:34:27.855Z,0.00
2022-08-11T00:35:50.935Z,0.00
2022-08-11T00:36:27.860Z,0.00
2022-08-11T00:37:26.828Z,0.00
2022-08-11T00:38:26.815Z,0.00
2022-08-11T00:39:28.718Z,0.00
2022-08-11T00:40:27.021Z,0.00
2022-08-11T00:41:26.840Z,0.00
2022-08-11T00:42:26.774Z,0.00
2022-08-11T00:43:26.810Z,0.00
2022-08-11T00:44:26.777Z,0.00
2022-08-11T00:45:26.742Z,0.00
2022-08-11T00:46:26.758Z,0.00
2022-08-11T00:47:26.715Z,0.00
2022-08-11T00:48:26.723Z,0.00
2022-08-11T00:49:26.696Z,0.00
2022-08-11T00:50:26.680Z,0.00
2022-08-11T00:51:26.670Z,0.00
2022-08-11T00:52:27.676Z,0.00
2022-08-11T00:53:26.651Z,0.00
2022-08-11T00:54:26.639Z,0.00
2022-08-11T00:55:27.623Z,0.00
2022-08-11T00:56:26.615Z,0.00
2022-08-11T00:57:37.376Z,0.00
2022-08-11T00:58:27.608Z,0.00
2022-08-11T00:59:35.274Z,0.00
2022-08-11T01:00:27.570Z,0.00
2022-08-11T01:01:26.817Z,0.00
2022-08-11T01:02:29.158Z,0.00
2022-08-11T01:03:26.585Z,0.00
2022-08-11T01:04:26.541Z,0.00
2022-08-11T01:05:26.516Z,0.00
2022-08-11T01:06:26.503Z,0.00
2022-08-11T01:08:01.439Z,0.00
2022-08-11T01:08:27.504Z,0.00
2022-08-11T01:09:26.478Z,0.00
2022-08-11T01:10:26.475Z,0.00
2022-08-11T01:11:26.448Z,0.00
2022-08-11T01:12:26.440Z,0.00
2022-08-11T01:13:26.461Z,0.00
2022-08-11T01:14:33.757Z,0.00
2022-08-11T01:15:27.402Z,0.00
2022-08-11T01:16:26.441Z,0.00
2022-08-11T01:17:26.388Z,0.00
2022-08-11T01:18:28.356Z,0.00
2022-08-11T01:19:26.361Z,0.00
2022-08-11T01:20:47.916Z,0.00
2022-08-11T01:21:27.343Z,0.00
2022-08-11T01:22:26.346Z,0.00
2022-08-11T01:23:26.352Z,0.00
2022-08-11T01:24:26.311Z,0.00
2022-08-11T01:25:26.382Z,0.00
2022-08-11T01:26:26.289Z,0.00
2022-08-11T01:27:26.274Z,0.00
2022-08-11T01:28:26.271Z,0.00
2022-08-11T01:29:26.273Z,0.00
2022-08-11T01:30:26.238Z,0.00
2022-08-11T01:31:26.292Z,0.00
2022-08-11T01:32:26.232Z,0.00
2022-08-11T01:33:26.233Z,0.00
2022-08-11T01:34:26.201Z,0.00
2022-08-11T01:35:26.186Z,0.00
2022-08-11T01:36:26.185Z,0.00
2022-08-11T01:37:26.166Z,0.00
2022-08-11T01:38:26.165Z,0.00
2022-08-11T01:39:26.214Z,0.00
2022-08-11T01:40:26.193Z,0.00
2022-08-11T01:41:26.167Z,0.00
2022-08-11T01:42:26.119Z,0.00
2022-08-11T01:43:26.099Z,0.00
2022-08-11T01:44:26.091Z,0.00
2022-08-11T01:45:26.089Z,0.00
2022-08-11T01:46:26.081Z,0.00
2022-08-11T01:47:26.106Z,0.00
2022-08-11T01:48:26.041Z,0.00
2022-08-11T01:50:08.445Z,0.00
2022-08-11T01:50:27.118Z,0.00
2022-08-11T01:51:26.013Z,0.00
2022-08-11T01:52:33.311Z,0.00
2022-08-11T01:53:27.016Z,0.00
2022-08-11T01:54:25.971Z,0.00
2022-08-11T01:55:25.968Z,0.00
2022-08-11T01:56:25.954Z,0.00
2022-08-11T01:57:26.326Z,0.00
2022-08-11T01:58:36.270Z,0.00
2022-08-11T01:59:26.921Z,0.00
2022-08-11T02:00:25.947Z,0.00
2022-08-11T02:01:25.894Z,0.00
2022-08-11T02:02:25.903Z,0.00
2022-08-11T02:03:25.896Z,0.00
2022-08-11T02:04:25.864Z,0.00
2022-08-11T02:05:25.852Z,0.00
2022-08-11T02:06:25.879Z,0.00
2022-08-11T02:07:25.833Z,0.00
2022-08-11T02:08:33.226Z,0.00
2022-08-11T02:09:26.804Z,0.00
2022-08-11T02:10:35.120Z,0.00
2022-08-11T02:11:26.798Z,0.00
2022-08-11T02:12:25.772Z,0.00
2022-08-11T02:13:35.354Z,0.00
2022-08-11T02:14:26.747Z,0.00
2022-08-11T02:15:25.839Z,0.00
2022-08-11T02:16:25.725Z,0.00
2022-08-11T02:17:25.719Z,0.00
2022-08-11T02:18:25.842Z,0.00
2022-08-11T02:19:25.698Z,0.00
2022-08-11T02:20:26.308Z,0.00
2022-08-11T02:21:25.668Z,0.00
2022-08-11T02:22:25.659Z,0.00
2022-08-11T02:24:04.191Z,0.00
2022-08-11T02:24:26.766Z,0.00
2022-08-11T02:25:25.625Z,0.00
2022-08-11T02:26:25.732Z,0.00
2022-08-11T02:27:25.606Z,0.00
2022-08-11T02:28:25.592Z,0.00
2022-08-11T02:29:25.589Z,0.00
2022-08-11T02:30:25.588Z,0.00
2022-08-11T02:32:24.706Z,0.00
2022-08-11T02:32:30.787Z,0.00
2022-08-11T02:33:25.544Z,0.00
2022-08-11T02:34:33.338Z,0.00
2022-08-11T02:35:25.529Z,0.00
2022-08-11T02:36:25.556Z,0.00
2022-08-11T02:37:25.489Z,0.00
2022-08-11T02:38:25.477Z,0.00
2022-08-11T02:39:25.534Z,0.00
2022-08-11T02:40:25.457Z,0.00
2022-08-11T02:41:25.446Z,0.00
2022-08-11T02:42:32.376Z,0.00
2022-08-11T02:43:26.421Z,0.00
2022-08-11T02:44:25.414Z,0.00
2022-08-11T02:45:25.399Z,0.00
2022-08-11T02:46:25.439Z,0.00
2022-08-11T02:47:25.376Z,0.00
2022-08-11T02:48:25.358Z,0.00
2022-08-11T02:49:25.357Z,0.00
2022-08-11T02:50:25.356Z,0.00
2022-08-11T02:51:25.350Z,0.00
2022-08-11T02:52:25.318Z,0.00
2022-08-11T02:53:25.308Z,0.00
2022-08-11T02:54:25.304Z,0.00
2022-08-11T02:55:44.629Z,0.00
2022-08-11T02:56:26.537Z,0.00
2022-08-11T02:57:25.261Z,0.00
2022-08-11T02:58:27.161Z,0.00
2022-08-11T02:59:25.259Z,0.00
2022-08-11T03:00:25.227Z,0.00
2022-08-11T03:01:25.279Z,0.00
2022-08-11T03:02:25.205Z,0.00
2022-08-11T03:03:25.368Z,0.00
2022-08-11T03:04:25.185Z,0.00
2022-08-11T03:05:26.183Z,0.00
2022-08-11T03:06:25.159Z,0.00
2022-08-11T03:07:29.166Z,0.00
2022-08-11T03:08:25.134Z,0.00
2022-08-11T03:09:25.127Z,0.00
2022-08-11T03:10:25.133Z,0.00
2022-08-11T03:11:25.099Z,0.00
2022-08-11T03:12:25.091Z,0.00
2022-08-11T03:13:25.080Z,0.00
2022-08-11T03:14:25.085Z,0.00
2022-08-11T03:15:25.061Z,0.00
2022-08-11T03:16:25.040Z,0.00
2022-08-11T03:17:25.041Z,0.00
2022-08-11T03:18:25.175Z,0.00
2022-08-11T03:19:25.029Z,0.00
2022-08-11T03:20:25.000Z,0.00
2022-08-11T03:21:50.587Z,0.00
2022-08-11T03:22:25.977Z,0.00
2022-08-11T03:23:24.970Z,0.00
2022-08-11T03:24:24.957Z,0.00
2022-08-11T03:25:24.961Z,0.00
2022-08-11T03:26:24.933Z,0.00
2022-08-11T03:27:24.925Z,0.00
2022-08-11T03:28:24.932Z,0.00
2022-08-11T03:29:25.367Z,0.00
2022-08-11T03:30:24.891Z,0.00
2022-08-11T03:31:24.968Z,0.00
2022-08-11T03:32:24.882Z,0.00
2022-08-11T03:33:24.858Z,0.00
2022-08-11T03:34:24.865Z,0.00
2022-08-11T03:35:24.841Z,0.00
2022-08-11T03:36:24.837Z,0.00
2022-08-11T03:37:24.822Z,5.62
2022-08-11T03:38:24.797Z,5.62
2022-08-11T03:39:25.840Z,5.62
2022-08-11T03:40:24.804Z,5.62
2022-08-11T03:41:57.657Z,5.62
2022-08-11T03:42:25.760Z,5.62
2022-08-11T03:43:25.247Z,5.62
2022-08-11T03:44:24.734Z,5.62
2022-08-11T03:45:24.740Z,5.62
2022-08-11T03:46:24.715Z,11.25
2022-08-11T03:47:24.705Z,11.25
2022-08-11T03:48:24.708Z,11.25
2022-08-11T03:49:24.698Z,11.25
2022-08-11T03:50:24.673Z,11.25
2022-08-11T03:51:24.664Z,11.25
2022-08-11T03:52:24.649Z,11.25
2022-08-11T03:53:24.655Z,16.88
2022-08-11T03:54:24.628Z,16.88
2022-08-11T03:55:24.618Z,16.88
2022-08-11T03:56:24.882Z,16.88
2022-08-11T03:57:24.596Z,16.88
2022-08-11T03:58:24.609Z,22.50
2022-08-11T03:59:24.570Z,22.50
2022-08-11T04:00:24.564Z,22.50
2022-08-11T04:01:24.589Z,22.50
2022-08-11T04:02:24.540Z,22.50
2022-08-11T04:03:31.297Z,22.50
2022-08-11T04:04:25.517Z,28.12
2022-08-11T04:05:24.505Z,28.12
2022-08-11T04:06:24.496Z,28.12
2022-08-11T04:07:24.501Z,28.12
2022-08-11T04:08:24.474Z,33.75
2022-08-11T04:09:24.476Z,33.75
2022-08-11T04:10:24.455Z,33.75
2022-08-11T04:11:24.479Z,33.75
2022-08-11T04:12:36.280Z,33.75
2022-08-11T04:13:25.478Z,39.38
2022-08-11T04:14:24.425Z,39.38
2022-08-11T04:15:24.415Z,39.38
2022-08-11T04:16:24.382Z,39.38
2022-08-11T04:17:24.399Z,39.38
2022-08-11T04:18:24.362Z,45.00
2022-08-11T04:19:24.351Z,45.00
2022-08-11T04:20:24.340Z,45.00
2022-08-11T04:21:24.341Z,45.00
2022-08-11T04:22:24.314Z,50.62
2022-08-11T04:24:35.706Z,50.62
2022-08-11T04:24:38.478Z,50.62
2022-08-11T04:25:25.322Z,50.62
2022-08-11T04:26:24.271Z,50.62
2022-08-11T04:27:24.261Z,56.25
2022-08-11T04:28:29.199Z,56.25
2022-08-11T04:29:25.237Z,56.25
2022-08-11T04:30:26.789Z,56.25
2022-08-11T04:31:50.546Z,61.88
2022-08-11T04:32:25.207Z,61.88
2022-08-11T04:33:24.193Z,61.88
2022-08-11T04:34:24.185Z,61.88
2022-08-11T04:35:24.173Z,61.88
2022-08-11T04:36:24.173Z,67.50
2022-08-11T04:37:24.150Z,67.50
2022-08-11T04:38:24.131Z,67.50
2022-08-11T04:39:24.184Z,67.50
2022-08-11T04:40:24.113Z,67.50
2022-08-11T04:41:24.311Z,73.12
2022-08-11T04:42:28.340Z,73.12
2022-08-11T04:43:25.099Z,73.12
2022-08-11T04:44:24.086Z,73.12
2022-08-11T04:45:24.278Z,73.12
2022-08-11T04:46:24.052Z,78.75
2022-08-11T04:47:24.038Z,78.75
2022-08-11T04:48:24.026Z,78.75
2022-08-11T04:49:26.260Z,78.75
2022-08-11T04:50:25.034Z,78.75
2022-08-11T04:51:23.994Z,84.38
2022-08-11T04:52:23.982Z,84.38
2022-08-11T04:53:24.971Z,84.38
2022-08-11T04:54:28.329Z,84.38
2022-08-11T04:55:23.961Z,84.38
2022-08-11T04:56:23.944Z,84.38
2022-08-11T04:57:23.926Z,90.00
2022-08-11T04:58:29.437Z,90.00
2022-08-11T04:59:24.904Z,90.00
2022-08-11T05:00:24.041Z,90.00
2022-08-11T05:01:23.894Z,90.00
2022-08-11T05:02:23.943Z,95.62
2022-08-11T05:03:23.858Z,95.62
2022-08-11T05:04:23.954Z,95.62
2022-08-11T05:05:23.877Z,95.62
2022-08-11T05:06:23.824Z,95.62
2022-08-11T05:07:23.820Z,101.25
2022-08-11T05:08:24.320Z,101.25
2022-08-11T05:09:23.831Z,101.25
2022-08-11T05:10:23.815Z,101.25
2022-08-11T05:11:23.770Z,101.25
2022-08-11T05:12:23.762Z,106.88
2022-08-11T05:13:23.742Z,106.88
2022-08-11T05:14:23.737Z,106.88
2022-08-11T05:15:23.761Z,106.88
2022-08-11T05:16:23.712Z,106.88
2022-08-11T05:17:23.932Z,106.88
2022-08-11T05:18:23.700Z,112.50
2022-08-11T05:19:23.679Z,112.50
2022-08-11T05:20:23.665Z,112.50
2022-08-11T05:21:23.901Z,112.50
2022-08-11T05:22:23.647Z,112.50
2022-08-11T05:23:23.636Z,118.12
2022-08-11T05:24:23.641Z,118.12
2022-08-11T05:26:42.846Z,118.12
2022-08-11T05:26:47.745Z,118.12
2022-08-11T05:27:24.586Z,118.12
2022-08-11T05:28:23.573Z,123.75
2022-08-11T05:29:23.577Z,123.75
2022-08-11T05:30:23.552Z,123.75
2022-08-11T05:31:23.549Z,123.75
2022-08-11T05:32:23.530Z,123.75
2022-08-11T05:33:23.533Z,129.38
2022-08-11T05:34:23.510Z,129.38
2022-08-11T05:36:00.537Z,129.38
2022-08-11T05:36:24.487Z,129.38
2022-08-11T05:37:27.170Z,129.38
2022-08-11T05:38:23.465Z,135.00
2022-08-11T05:39:36.280Z,135.00
2022-08-11T05:40:24.441Z,135.00
2022-08-11T05:41:23.428Z,135.00
2022-08-11T05:42:30.344Z,135.00
2022-08-11T05:43:24.403Z,140.62
2022-08-11T05:44:23.426Z,140.62
2022-08-11T05:45:23.396Z,140.62
2022-08-11T05:46:23.374Z,140.62
2022-08-11T05:47:23.363Z,146.25
2022-08-11T05:48:23.353Z,146.25
2022-08-11T05:49:23.380Z,151.88
2022-08-11T05:50:31.312Z,151.88
2022-08-11T05:51:26.056Z,151.88
2022-08-11T05:52:31.688Z,157.50
2022-08-11T05:53:24.300Z,163.12
2022-08-11T05:54:29.390Z,163.12
2022-08-11T05:55:24.354Z,168.75
2022-08-11T05:56:23.266Z,174.38
2022-08-11T05:57:49.748Z,180.00
2022-08-11T05:58:24.239Z,180.00
2022-08-11T05:59:23.247Z,185.62
2022-08-11T06:00:23.220Z,191.25
2022-08-11T06:01:23.265Z,191.25
2022-08-11T06:02:23.196Z,196.88
2022-08-11T06:03:23.183Z,202.50
2022-08-11T06:04:23.174Z,208.12
2022-08-11T06:05:23.162Z,213.75
2022-08-11T06:06:23.170Z,208.12
2022-08-11T06:07:23.139Z,213.75
2022-08-11T06:08:23.130Z,219.38
2022-08-11T06:09:23.123Z,225.00
2022-08-11T06:10:23.107Z,230.62
2022-08-11T06:11:43.616Z,230.62
2022-08-11T06:12:24.150Z,236.25
2022-08-11T06:13:23.088Z,241.88
2022-08-11T06:14:23.064Z,247.50
2022-08-11T06:15:23.066Z,253.12
2022-08-11T06:16:23.044Z,258.75
2022-08-11T06:17:23.029Z,258.75
2022-08-11T06:18:23.019Z,264.38
2022-08-11T06:19:23.007Z,270.00
2022-08-11T06:20:23.014Z,270.00
2022-08-11T06:21:22.985Z,275.62
2022-08-11T06:22:22.976Z,281.25
2022-08-11T06:23:22.962Z,281.25
2022-08-11T06:24:22.961Z,286.88
2022-08-11T06:25:23.931Z,292.50
2022-08-11T06:26:22.944Z,298.12
2022-08-11T06:27:22.920Z,303.75
2022-08-11T06:28:22.914Z,309.38
2022-08-11T06:29:22.931Z,315.00
2022-08-11T06:30:23.903Z,320.62
2022-08-11T06:31:22.877Z,326.25
2022-08-11T06:32:22.865Z,326.25
2022-08-11T06:33:22.855Z,331.88
2022-08-11T06:34:27.664Z,337.50
2022-08-11T06:35:23.841Z,343.12
2022-08-11T06:36:23.416Z,348.75
2022-08-11T06:37:23.449Z,354.38
2022-08-11T06:38:22.800Z,360.00
2022-08-11T06:39:22.878Z,371.25
2022-08-11T06:40:22.799Z,376.88
2022-08-11T06:41:22.764Z,376.88
2022-08-11T06:42:22.756Z,388.12
2022-08-11T06:43:22.780Z,393.75
2022-08-11T06:44:22.773Z,405.00
2022-08-11T06:45:22.728Z,421.88
2022-08-11T06:46:26.221Z,433.12
2022-08-11T06:47:23.695Z,461.25
2022-08-11T06:48:22.691Z,495.00
2022-08-11T06:49:22.678Z,579.38
2022-08-11T06:50:22.686Z,736.88
2022-08-11T06:51:22.657Z,916.88
2022-08-11T06:52:35.713Z,1023.75
2022-08-11T06:53:23.634Z,1091.25
2022-08-11T06:54:22.626Z,1130.62
2022-08-11T06:55:55.562Z,1170.00
2022-08-11T06:56:23.602Z,1186.88
2022-08-11T06:57:31.035Z,1203.75
2022-08-11T06:58:23.580Z,1220.62
2022-08-11T06:59:22.704Z,1237.50
2022-08-11T07:00:22.574Z,1260.00
2022-08-11T07:01:22.606Z,1282.50
2022-08-11T07:02:22.538Z,1299.38
2022-08-11T07:03:22.552Z,1316.25
2022-08-11T07:04:22.516Z,1333.12
2022-08-11T07:05:22.504Z,1350.00
2022-08-11T07:06:22.496Z,1361.25
2022-08-11T07:07:22.483Z,1383.75
2022-08-11T07:08:34.880Z,1400.62
2022-08-11T07:09:23.460Z,1411.88
2022-08-11T07:10:22.454Z,1434.38
2022-08-11T07:11:22.442Z,1456.88
2022-08-11T07:12:22.566Z,1473.75
2022-08-11T07:13:44.857Z,1496.25
2022-08-11T07:14:23.432Z,1507.50
2022-08-11T07:15:22.402Z,1530.00
2022-08-11T07:16:24.765Z,1546.88
2022-08-11T07:17:22.376Z,1558.12
2022-08-11T07:18:22.370Z,1569.38
2022-08-11T07:19:22.372Z,1586.25
2022-08-11T07:20:22.354Z,1608.75
2022-08-11T07:22:00.814Z,1631.25
2022-08-11T07:22:23.324Z,1648.12
2022-08-11T07:23:22.330Z,1659.38
2022-08-11T07:24:22.305Z,1676.25
2022-08-11T07:25:23.295Z,1687.50
2022-08-11T07:26:22.286Z,1698.75
2022-08-11T07:27:22.275Z,1715.62
2022-08-11T07:28:22.278Z,1738.12
2022-08-11T07:29:22.262Z,1749.38
2022-08-11T07:30:22.262Z,1771.88
2022-08-11T07:31:22.237Z,1788.75
2022-08-11T07:32:22.226Z,1811.25
2022-08-11T07:34:07.747Z,1833.75
2022-08-11T07:34:23.216Z,1890.00
2022-08-11T07:35:22.203Z,1940.62
2022-08-11T07:36:22.198Z,1968.75
2022-08-11T07:37:23.396Z,1991.25
2022-08-11T07:38:25.467Z,2008.12
2022-08-11T07:39:22.321Z,2036.25
2022-08-11T07:40:22.458Z,2058.75
2022-08-11T07:41:22.395Z,2070.00
2022-08-11T07:42:22.401Z,2081.25
2022-08-11T07:43:22.289Z,2098.12
2022-08-11T07:44:22.489Z,2120.62
2022-08-11T07:45:22.298Z,2137.50
2022-08-11T07:46:22.460Z,2148.75
2022-08-11T07:47:22.363Z,2165.62
2022-08-11T07:48:22.582Z,2182.50
2022-08-11T07:49:22.265Z,2188.12
2022-08-11T07:50:22.398Z,2199.38
2022-08-11T07:51:22.229Z,2210.62
2022-08-11T07:52:22.287Z,2250.00
2022-08-11T07:53:22.323Z,2255.62
2022-08-11T07:54:22.011Z,2278.12
2022-08-11T07:55:21.995Z,2283.75
2022-08-11T07:56:31.312Z,2300.62
2022-08-11T07:57:45.059Z,2311.88
2022-08-11T07:58:22.959Z,2340.00
2022-08-11T07:59:21.957Z,2379.38
2022-08-11T08:00:23.049Z,2379.38
2022-08-11T08:01:23.015Z,2396.25
2022-08-11T08:02:21.924Z,2418.75
2022-08-11T08:03:21.913Z,2452.50
2022-08-11T08:04:21.904Z,2503.12
2022-08-11T08:05:21.963Z,2525.62
2022-08-11T08:06:36.382Z,2542.50
2022-08-11T08:07:22.872Z,2542.50
2022-08-11T08:08:21.864Z,2570.62
2022-08-11T08:09:21.854Z,2581.88
2022-08-11T08:10:21.880Z,2587.50
2022-08-11T08:11:27.138Z,2598.75
2022-08-11T08:12:22.839Z,2621.25
2022-08-11T08:13:21.831Z,2632.50
2022-08-11T08:14:21.804Z,2615.62
2022-08-11T08:15:21.793Z,2604.38
2022-08-11T08:16:21.788Z,2626.88
2022-08-11T08:17:21.790Z,2649.38
2022-08-11T08:18:26.551Z,2660.62
2022-08-11T08:19:22.756Z,2677.50
2022-08-11T08:20:21.786Z,2700.00
2022-08-11T08:21:21.737Z,2700.00
2022-08-11T08:22:48.327Z,2705.62
2022-08-11T08:23:22.720Z,2705.62
2022-08-11T08:24:21.720Z,2733.75
2022-08-11T08:25:21.699Z,2756.25
2022-08-11T08:26:21.692Z,2750.62
2022-08-11T08:27:21.696Z,2750.62
2022-08-11T08:28:21.673Z,2728.12
2022-08-11T08:29:21.663Z,2716.88
2022-08-11T08:30:21.694Z,2739.38
2022-08-11T08:31:21.646Z,2745.00
2022-08-11T08:32:21.654Z,2739.38
2022-08-11T08:33:21.627Z,2745.00
2022-08-11T08:34:33.538Z,2761.88
2022-08-11T08:35:21.612Z,2790.00
2022-08-11T08:36:21.604Z,2790.00
2022-08-11T08:37:45.506Z,2790.00
2022-08-11T08:38:22.604Z,2806.88
2022-08-11T08:39:21.777Z,2795.62
2022-08-11T08:40:21.636Z,2790.00
2022-08-11T08:41:21.608Z,2806.88
2022-08-11T08:42:21.562Z,2784.38
2022-08-11T08:43:21.541Z,2767.50
2022-08-11T08:44:37.630Z,2784.38
2022-08-11T08:45:22.528Z,2778.75
2022-08-11T08:46:21.560Z,2795.62
2022-08-11T08:47:42.619Z,2806.88
2022-08-11T08:48:22.490Z,2806.88
2022-08-11T08:49:21.484Z,2851.88
2022-08-11T08:50:21.597Z,2851.88
2022-08-11T08:51:22.477Z,2846.25
2022-08-11T08:52:30.999Z,2846.25
2022-08-11T08:53:22.448Z,2863.12
2022-08-11T08:54:21.440Z,2863.12
2022-08-11T08:55:21.426Z,2874.38
2022-08-11T08:56:21.438Z,2908.12
2022-08-11T08:57:21.420Z,2891.25
2022-08-11T08:58:21.418Z,2913.75
2022-08-11T08:59:21.404Z,2953.12
2022-08-11T09:00:23.655Z,2958.75
2022-08-11T09:01:21.443Z,2941.88
2022-08-11T09:02:34.046Z,2953.12
2022-08-11T09:03:41.066Z,2958.75
2022-08-11T09:04:22.508Z,2958.75
2022-08-11T09:05:21.374Z,2958.75
2022-08-11T09:06:21.335Z,2981.25
2022-08-11T09:07:21.329Z,2975.62
2022-08-11T09:08:21.314Z,2970.00
2022-08-11T09:09:21.324Z,3003.75
2022-08-11T09:10:21.373Z,3020.62
2022-08-11T09:11:21.490Z,3009.38
2022-08-11T09:12:38.412Z,3043.12
2022-08-11T09:13:22.270Z,2868.75
2022-08-11T09:14:21.265Z,3110.62
2022-08-11T09:15:21.280Z,3105.00
2022-08-11T09:16:21.246Z,3116.25
2022-08-11T09:17:21.237Z,3105.00
2022-08-11T09:18:21.233Z,3082.50
2022-08-11T09:19:21.224Z,3093.75
2022-08-11T09:20:21.234Z,3110.62
2022-08-11T09:21:37.129Z,3048.75
2022-08-11T09:22:22.192Z,3127.50
2022-08-11T09:24:26.390Z,3110.62
2022-08-11T09:25:21.174Z,3127.50
2022-08-11T09:26:21.965Z,3161.25
2022-08-11T09:27:22.151Z,3172.50
2022-08-11T09:28:21.145Z,3155.62
2022-08-11T09:29:21.161Z,3138.75
2022-08-11T09:30:21.229Z,3150.00
2022-08-11T09:31:21.621Z,3144.38
2022-08-11T09:32:21.135Z,3178.12
2022-08-11T09:33:21.106Z,3217.50
2022-08-11T09:34:21.110Z,3256.88
2022-08-11T09:35:21.097Z,3262.50
2022-08-11T09:36:21.082Z,3256.88
2022-08-11T09:37:54.470Z,3240.00
2022-08-11T09:38:22.364Z,3251.25
2022-08-11T09:39:21.113Z,3245.62
2022-08-11T09:40:21.044Z,3251.25
2022-08-11T09:41:21.039Z,3279.38
2022-08-11T09:42:23.428Z,3290.62
2022-08-11T09:43:21.040Z,3279.38
2022-08-11T09:44:21.021Z,3245.62
2022-08-11T09:45:21.115Z,3228.75
2022-08-11T09:46:20.991Z,3256.88
2022-08-11T09:47:20.988Z,3223.12
2022-08-11T09:48:20.974Z,3217.50
2022-08-11T09:49:20.993Z,3234.38
2022-08-11T09:50:20.956Z,3206.25
2022-08-11T09:51:21.969Z,3200.62
2022-08-11T09:52:20.943Z,3256.88
2022-08-11T09:53:36.826Z,3166.88
2022-08-11T09:54:21.942Z,2649.38
2022-08-11T09:55:20.918Z,3324.38
2022-08-11T09:56:20.930Z,3335.62
2022-08-11T09:57:20.903Z,3403.12
2022-08-11T09:58:43.068Z,3375.00
2022-08-11T09:59:21.885Z,3408.75
2022-08-11T10:00:20.904Z,3403.12
2022-08-11T10:01:20.916Z,3363.75
2022-08-11T10:02:21.514Z,3425.62
2022-08-11T10:03:20.855Z,3543.75
2022-08-11T10:04:20.846Z,3487.50
2022-08-11T10:05:20.840Z,871.88
2022-08-11T10:06:20.848Z,697.50
2022-08-11T10:07:21.832Z,804.38
2022-08-11T10:08:21.039Z,933.75
2022-08-11T10:09:20.806Z,3268.12
2022-08-11T10:10:20.811Z,3341.25
2022-08-11T10:11:20.785Z,3223.12
2022-08-11T10:12:20.781Z,3493.12
2022-08-11T10:14:06.086Z,3476.25
2022-08-11T10:14:34.063Z,1333.12
2022-08-11T10:15:21.757Z,3673.12
2022-08-11T10:16:20.748Z,3633.75
2022-08-11T10:17:20.745Z,3616.88
2022-08-11T10:18:20.748Z,3543.75
2022-08-11T10:19:20.961Z,3549.38
2022-08-11T10:20:25.628Z,3650.62
2022-08-11T10:21:21.704Z,3448.12
2022-08-11T10:22:20.696Z,3375.00
2022-08-11T10:23:20.708Z,787.50
2022-08-11T10:24:20.702Z,793.12
2022-08-11T10:25:20.826Z,826.88
2022-08-11T10:26:20.663Z,1783.12
2022-08-11T10:27:20.685Z,2295.00
2022-08-11T10:28:33.909Z,2334.38
2022-08-11T10:29:21.709Z,3335.62
2022-08-11T10:30:20.629Z,3408.75
2022-08-11T10:31:20.645Z,2131.88
2022-08-11T10:32:20.665Z,2970.00
2022-08-11T10:33:37.902Z,3391.88
2022-08-11T10:34:21.591Z,3375.00
2022-08-11T10:35:20.586Z,3414.38
2022-08-11T10:36:20.576Z,3498.75
2022-08-11T10:37:20.584Z,3532.50
2022-08-11T10:38:21.484Z,3448.12
2022-08-11T10:39:20.640Z,3481.88
2022-08-11T10:40:20.555Z,3504.38
2022-08-11T10:41:20.535Z,3526.88
2022-08-11T10:42:30.244Z,3526.88
2022-08-11T10:44:01.668Z,3538.12
2022-08-11T10:44:21.516Z,3616.88
2022-08-11T10:45:20.505Z,3611.25
2022-08-11T10:46:29.725Z,3656.25
2022-08-11T10:47:21.510Z,3639.38
2022-08-11T10:48:20.477Z,3465.00
2022-08-11T10:49:20.470Z,3420.00
2022-08-11T10:50:20.465Z,3397.50
2022-08-11T10:51:42.785Z,3408.75
2022-08-11T10:52:21.448Z,3465.00
2022-08-11T10:53:20.455Z,3526.88
2022-08-11T10:54:20.436Z,3510.00
2022-08-11T10:55:20.426Z,3470.62
2022-08-11T10:56:20.463Z,3504.38
2022-08-11T10:57:20.406Z,1501.88
2022-08-11T10:58:20.428Z,3279.38
2022-08-11T10:59:20.445Z,3476.25
2022-08-11T11:00:20.384Z,2520.00
2022-08-11T11:01:20.695Z,3121.88
2022-08-11T11:02:20.384Z,3318.75
2022-08-11T11:03:23.687Z,3318.75
2022-08-11T11:04:20.351Z,3414.38
2022-08-11T11:05:20.339Z,3408.75
2022-08-11T11:06:28.729Z,3425.62
2022-08-11T11:07:21.346Z,3442.50
2022-08-11T11:08:20.317Z,3504.38
2022-08-11T11:09:20.308Z,3465.00
2022-08-11T11:10:20.310Z,3442.50
2022-08-11T11:11:20.310Z,3408.75
2022-08-11T11:12:20.301Z,3279.38
2022-08-11T11:13:20.278Z,3121.88
2022-08-11T11:14:20.269Z,3420.00
2022-08-11T11:15:21.266Z,3273.75
2022-08-11T11:16:21.022Z,3453.75
2022-08-11T11:17:20.265Z,2041.88
2022-08-11T11:18:20.244Z,3442.50
2022-08-11T11:19:20.240Z,3330.00
2022-08-11T11:20:36.613Z,3318.75
2022-08-11T11:21:21.220Z,3403.12
2022-08-11T11:22:20.224Z,3369.38
2022-08-11T11:23:20.203Z,2767.50
2022-08-11T11:24:20.190Z,2958.75
2022-08-11T11:25:20.204Z,2868.75
2022-08-11T11:26:27.427Z,2705.62
2022-08-11T11:27:21.171Z,2925.00
2022-08-11T11:28:20.160Z,2722.50
2022-08-11T11:29:20.155Z,2750.62
2022-08-11T11:30:20.160Z,3116.25
2022-08-11T11:31:21.996Z,3211.88
2022-08-11T11:32:20.137Z,3166.88
2022-08-11T11:33:20.123Z,3183.75
2022-08-11T11:34:20.175Z,3133.12
2022-08-11T11:35:20.130Z,3161.25
2022-08-11T11:36:20.098Z,2981.25
2022-08-11T11:37:20.096Z,3043.12
2022-08-11T11:38:20.106Z,3161.25
2022-08-11T11:39:20.146Z,3121.88
2022-08-11T11:40:20.071Z,3133.12
2022-08-11T11:41:20.057Z,3121.88
2022-08-11T11:42:20.059Z,3144.38
2022-08-11T11:43:20.041Z,3065.62
2022-08-11T11:44:21.064Z,3054.38
2022-08-11T11:45:23.390Z,3065.62
2022-08-11T11:46:20.018Z,3099.38
2022-08-11T11:47:21.784Z,3105.00
2022-08-11T11:48:20.005Z,3105.00
2022-08-11T11:50:20.535Z,2908.12
2022-08-11T11:51:19.980Z,2356.88
2022-08-11T11:52:19.968Z,3076.88
2022-08-11T11:53:19.967Z,3088.12
2022-08-11T11:54:19.977Z,3071.25
2022-08-11T11:55:20.021Z,3133.12
2022-08-11T11:56:19.938Z,3127.50
2022-08-11T11:57:19.945Z,3116.25
2022-08-11T11:58:19.927Z,3144.38
2022-08-11T11:59:19.965Z,2818.12
2022-08-11T12:00:19.905Z,2525.62
2022-08-11T12:01:19.930Z,3155.62
2022-08-11T12:02:19.893Z,3088.12
2022-08-11T12:03:19.986Z,3065.62
2022-08-11T12:04:19.895Z,3105.00
2022-08-11T12:05:19.896Z,2795.62
2022-08-11T12:06:19.861Z,2835.00
2022-08-11T12:07:20.131Z,2902.50
2022-08-11T12:08:22.398Z,2970.00
2022-08-11T12:09:19.834Z,2970.00
2022-08-11T12:10:19.850Z,3048.75
2022-08-11T12:11:19.827Z,2992.50
2022-08-11T12:12:19.821Z,2919.38
2022-08-11T12:13:19.809Z,2981.25
2022-08-11T12:14:19.819Z,2261.25
2022-08-11T12:15:19.812Z,2615.62
2022-08-11T12:16:34.371Z,2846.25
2022-08-11T12:17:20.774Z,2964.38
2022-08-11T12:18:19.770Z,3138.75
2022-08-11T12:19:19.761Z,2953.12
2022-08-11T12:20:31.653Z,3065.62
2022-08-11T12:21:20.746Z,2812.50
2022-08-11T12:22:19.741Z,3020.62
2022-08-11T12:23:19.741Z,2986.88
2022-08-11T12:24:19.726Z,2958.75
2022-08-11T12:25:19.731Z,3088.12
2022-08-11T12:26:27.812Z,3082.50
2022-08-11T12:27:20.697Z,3009.38
2022-08-11T12:28:19.689Z,2812.50
2022-08-11T12:29:19.680Z,2829.38
2022-08-11T12:30:19.691Z,2778.75
2022-08-11T12:31:19.670Z,3003.75
2022-08-11T12:32:19.670Z,2896.88
2022-08-11T12:33:21.567Z,2356.88
2022-08-11T12:34:19.658Z,2874.38
2022-08-11T12:35:19.661Z,2953.12
2022-08-11T12:36:19.627Z,2958.75